createdAt,value
2019-05-07T00:00:22.086Z,72.39
2019-05-07T00:01:23.309Z,72.39
2019-05-07T00:02:22.572Z,72.20
2019-05-07T00:03:22.049Z,72.39
2019-05-07T00:04:22.446Z,72.67
2019-05-07T00:05:22.838Z,73.15
2019-05-07T00:06:23.110Z,72.11
2019-05-07T00:07:22.403Z,72.86
2019-05-07T00:08:22.961Z,73.63
2019-05-07T00:09:23.290Z,73.53
2019-05-07T00:10:21.822Z,74.20
2019-05-07T00:11:22.325Z,74.39
2019-05-07T00:12:23.057Z,74.48
2019-05-07T00:13:22.709Z,74.87
2019-05-07T00:14:23.107Z,75.43
2019-05-07T00:15:23.012Z,75.43
2019-05-07T00:16:22.421Z,75.43
2019-05-07T00:17:22.849Z,75.62
2019-05-07T00:18:22.978Z,76.01
2019-05-07T00:19:23.092Z,76.20
2019-05-07T00:20:23.128Z,75.91
2019-05-07T00:21:23.321Z,76.20
2019-05-07T00:22:22.767Z,76.39
2019-05-07T00:23:23.161Z,76.96
2019-05-07T00:24:22.403Z,77.05
2019-05-07T00:25:22.819Z,77.15
2019-05-07T00:26:22.533Z,76.96
2019-05-07T00:27:22.716Z,77.43
2019-05-07T00:28:23.069Z,77.05
2019-05-07T00:29:22.500Z,77.53
2019-05-07T00:30:22.403Z,77.34
2019-05-07T00:31:23.255Z,77.24
2019-05-07T00:32:22.325Z,77.72
2019-05-07T00:33:22.790Z,78.38
2019-05-07T00:34:22.234Z,78.38
2019-05-07T00:35:22.619Z,78.57
2019-05-07T00:36:23.069Z,78.48
2019-05-07T00:37:22.324Z,77.91
2019-05-07T00:38:22.491Z,78.67
2019-05-07T00:39:22.382Z,78.86
2019-05-07T00:40:22.604Z,78.77
2019-05-07T00:41:22.974Z,79.24
2019-05-07T00:42:22.467Z,79.81
2019-05-07T00:43:22.818Z,79.14
2019-05-07T00:44:22.524Z,79.20
2019-05-07T00:45:23.906Z,79.49
2019-05-07T00:46:22.668Z,79.81
2019-05-07T00:47:22.613Z,79.81
2019-05-07T00:48:23.502Z,79.77
2019-05-07T00:49:22.670Z,79.39
2019-05-07T00:50:22.698Z,79.49
2019-05-07T00:51:22.749Z,79.30
2019-05-07T00:52:22.769Z,79.68
2019-05-07T00:53:23.631Z,79.96
2019-05-07T00:54:23.102Z,80.44
2019-05-07T00:55:22.873Z,80.63
2019-05-07T00:56:22.878Z,80.24
2019-05-07T00:57:23.031Z,80.72
2019-05-07T00:58:26.556Z,80.63
2019-05-07T00:59:22.962Z,80.53
2019-05-07T01:00:22.989Z,80.72
2019-05-07T01:01:23.018Z,81.01
2019-05-07T01:02:23.046Z,80.72
2019-05-07T01:03:23.075Z,81.29
2019-05-07T01:04:23.160Z,81.67
2019-05-07T01:05:23.250Z,81.77
2019-05-07T01:06:26.335Z,82.05
2019-05-07T01:07:23.191Z,81.96
2019-05-07T01:08:23.222Z,82.71
2019-05-07T01:09:23.255Z,82.34
2019-05-07T01:10:23.279Z,81.58
2019-05-07T01:11:23.311Z,82.53
2019-05-07T01:12:23.337Z,82.53
2019-05-07T01:13:23.640Z,83.10
2019-05-07T01:14:23.394Z,83.10
2019-05-07T01:15:31.222Z,82.91
2019-05-07T01:16:23.451Z,82.81
2019-05-07T01:17:23.482Z,82.53
2019-05-07T01:18:23.583Z,82.53
2019-05-07T01:19:23.539Z,83.19
2019-05-07T01:20:23.567Z,82.91
2019-05-07T01:21:23.595Z,83.76
2019-05-07T01:22:23.628Z,83.39
2019-05-07T01:23:23.654Z,83.48
2019-05-07T01:24:23.681Z,83.58
2019-05-07T01:25:23.710Z,83.67
2019-05-07T01:26:23.740Z,83.00
2019-05-07T01:27:23.768Z,83.39
2019-05-07T01:28:23.798Z,83.39
2019-05-07T01:29:23.827Z,83.39
2019-05-07T01:30:23.855Z,83.67
2019-05-07T01:31:23.884Z,83.19
2019-05-07T01:32:23.913Z,83.95
2019-05-07T01:33:23.941Z,83.58
2019-05-07T01:34:23.972Z,83.86
2019-05-07T01:35:24.003Z,83.58
2019-05-07T01:36:24.027Z,83.58
2019-05-07T01:37:24.057Z,83.76
2019-05-07T01:38:24.085Z,84.62
2019-05-07T01:39:24.114Z,84.62
2019-05-07T01:40:24.143Z,84.52
2019-05-07T01:41:24.173Z,84.14
2019-05-07T01:42:24.203Z,84.05
2019-05-07T01:43:24.233Z,84.62
2019-05-07T01:44:24.258Z,84.05
2019-05-07T01:45:24.981Z,84.05
2019-05-07T01:46:24.752Z,84.14
2019-05-07T01:47:24.343Z,83.86
2019-05-07T01:48:24.372Z,83.95
2019-05-07T01:49:24.400Z,84.14
2019-05-07T01:50:24.430Z,83.86
2019-05-07T01:51:24.459Z,83.76
2019-05-07T01:52:24.488Z,83.86
2019-05-07T01:53:24.517Z,84.62
2019-05-07T01:54:24.546Z,83.86
2019-05-07T01:55:24.575Z,83.95
2019-05-07T01:56:24.604Z,84.33
2019-05-07T01:57:24.633Z,84.52
2019-05-07T01:58:24.659Z,84.81
2019-05-07T01:59:24.689Z,84.62
2019-05-07T02:00:24.718Z,84.62
2019-05-07T02:01:24.745Z,84.91
2019-05-07T02:02:24.776Z,84.72
2019-05-07T02:03:24.805Z,85.00
2019-05-07T02:04:24.833Z,84.62
2019-05-07T02:05:24.868Z,84.91
2019-05-07T02:06:24.891Z,84.62
2019-05-07T02:07:24.922Z,84.81
2019-05-07T02:08:24.948Z,84.52
2019-05-07T02:09:24.979Z,84.52
2019-05-07T02:10:25.005Z,84.52
2019-05-07T02:11:25.034Z,84.52
2019-05-07T02:12:25.064Z,84.43
2019-05-07T02:13:25.091Z,84.33
2019-05-07T02:14:25.120Z,84.33
2019-05-07T02:15:25.149Z,84.43
2019-05-07T02:16:25.178Z,84.14
2019-05-07T02:17:25.207Z,84.24
2019-05-07T02:18:25.235Z,84.05
2019-05-07T02:19:25.265Z,83.95
2019-05-07T02:20:25.293Z,84.62
2019-05-07T02:21:25.321Z,84.52
2019-05-07T02:22:25.354Z,84.62
2019-05-07T02:23:25.381Z,84.43
2019-05-07T02:24:25.409Z,85.00
2019-05-07T02:25:25.436Z,84.72
2019-05-07T02:26:25.464Z,84.24
2019-05-07T02:27:25.494Z,84.72
2019-05-07T02:28:25.522Z,84.62
2019-05-07T02:29:25.553Z,85.00
2019-05-07T02:30:25.580Z,84.91
2019-05-07T02:31:25.610Z,84.81
2019-05-07T02:32:25.639Z,84.62
2019-05-07T02:33:25.666Z,84.72
2019-05-07T02:34:25.697Z,84.33
2019-05-07T02:35:25.724Z,84.33
2019-05-07T02:36:25.758Z,84.52
2019-05-07T02:37:30.566Z,84.62
2019-05-07T02:38:25.811Z,84.24
2019-05-07T02:39:25.839Z,84.43
2019-05-07T02:40:25.877Z,84.62
2019-05-07T02:41:25.901Z,84.62
2019-05-07T02:42:25.931Z,84.33
2019-05-07T02:43:25.956Z,84.72
2019-05-07T02:44:25.984Z,84.33
2019-05-07T02:45:26.012Z,84.24
2019-05-07T02:46:31.643Z,84.72
2019-05-07T02:47:26.068Z,84.62
2019-05-07T02:48:26.098Z,84.62
2019-05-07T02:49:26.125Z,84.14
2019-05-07T02:50:26.157Z,84.24
2019-05-07T02:51:26.185Z,84.43
2019-05-07T02:52:26.213Z,84.24
2019-05-07T02:53:26.241Z,84.14
2019-05-07T02:54:26.301Z,84.62
2019-05-07T02:55:26.299Z,84.62
2019-05-07T02:56:26.331Z,83.67
2019-05-07T02:57:26.367Z,84.14
2019-05-07T02:58:26.386Z,84.24
2019-05-07T02:59:26.418Z,84.43
2019-05-07T03:00:26.443Z,84.43
2019-05-07T03:01:26.474Z,84.14
2019-05-07T03:02:26.499Z,83.95
2019-05-07T03:03:26.528Z,84.14
2019-05-07T03:04:26.556Z,84.33
2019-05-07T03:05:26.586Z,83.76
2019-05-07T03:06:26.613Z,83.19
2019-05-07T03:07:26.646Z,83.95
2019-05-07T03:08:27.660Z,83.76
2019-05-07T03:09:26.702Z,83.86
2019-05-07T03:10:26.727Z,84.14
2019-05-07T03:11:26.755Z,84.62
2019-05-07T03:12:26.786Z,83.86
2019-05-07T03:13:26.815Z,84.72
2019-05-07T03:14:26.849Z,84.62
2019-05-07T03:15:26.879Z,84.43
2019-05-07T03:16:39.549Z,84.24
2019-05-07T03:17:26.928Z,84.43
2019-05-07T03:18:26.957Z,84.43
2019-05-07T03:19:26.987Z,84.62
2019-05-07T03:20:27.030Z,84.43
2019-05-07T03:21:27.045Z,84.24
2019-05-07T03:22:27.075Z,84.52
2019-05-07T03:23:27.101Z,84.24
2019-05-07T03:24:27.130Z,84.05
2019-05-07T03:25:27.161Z,83.86
2019-05-07T03:26:27.189Z,83.86
2019-05-07T03:27:27.215Z,84.43
2019-05-07T03:28:27.248Z,84.43
2019-05-07T03:29:27.277Z,84.24
2019-05-07T03:30:27.311Z,84.62
2019-05-07T03:31:27.330Z,84.62
2019-05-07T03:32:28.475Z,84.43
2019-05-07T03:33:27.406Z,85.10
2019-05-07T03:34:27.426Z,84.62
2019-05-07T03:35:28.226Z,84.33
2019-05-07T03:36:27.473Z,84.62
2019-05-07T03:37:31.645Z,84.81
2019-05-07T03:38:27.529Z,85.10
2019-05-07T03:39:27.580Z,84.33
2019-05-07T03:40:27.586Z,84.62
2019-05-07T03:41:27.616Z,84.91
2019-05-07T03:42:27.653Z,84.58
2019-05-07T03:43:27.672Z,84.29
2019-05-07T03:44:27.709Z,84.62
2019-05-07T03:45:27.731Z,84.52
2019-05-07T03:46:27.760Z,85.28
2019-05-07T03:47:27.789Z,85.28
2019-05-07T03:48:27.821Z,85.19
2019-05-07T03:49:27.850Z,84.43
2019-05-07T03:50:27.875Z,84.24
2019-05-07T03:51:27.909Z,84.24
2019-05-07T03:52:27.934Z,85.28
2019-05-07T03:53:27.959Z,85.47
2019-05-07T03:54:27.985Z,85.28
2019-05-07T03:55:28.014Z,85.28
2019-05-07T03:56:28.046Z,84.91
2019-05-07T03:57:28.071Z,85.00
2019-05-07T03:58:28.101Z,84.81
2019-05-07T03:59:28.130Z,84.72
2019-05-07T04:00:28.164Z,85.10
2019-05-07T04:01:28.188Z,85.10
2019-05-07T04:02:28.215Z,85.28
2019-05-07T04:03:28.249Z,85.47
2019-05-07T04:04:28.274Z,85.24
2019-05-07T04:05:28.301Z,84.24
2019-05-07T04:06:28.330Z,85.10
2019-05-07T04:07:28.359Z,85.47
2019-05-07T04:08:28.396Z,84.33
2019-05-07T04:09:28.416Z,84.72
2019-05-07T04:10:28.443Z,85.00
2019-05-07T04:11:28.482Z,84.14
2019-05-07T04:12:28.502Z,84.14
2019-05-07T04:13:28.536Z,84.24
2019-05-07T04:14:28.559Z,84.81
2019-05-07T04:15:28.587Z,84.52
2019-05-07T04:16:28.616Z,84.62
2019-05-07T04:17:28.649Z,84.43
2019-05-07T04:18:28.673Z,84.62
2019-05-07T04:19:28.703Z,84.62
2019-05-07T04:20:28.730Z,84.43
2019-05-07T04:21:28.763Z,84.43
2019-05-07T04:22:29.262Z,85.10
2019-05-07T04:23:28.816Z,84.33
2019-05-07T04:24:28.845Z,84.33
2019-05-07T04:25:28.875Z,84.43
2019-05-07T04:26:28.906Z,84.52
2019-05-07T04:27:28.937Z,84.43
2019-05-07T04:28:28.959Z,84.43
2019-05-07T04:29:28.988Z,84.91
2019-05-07T04:30:29.027Z,84.81
2019-05-07T04:31:29.045Z,84.62
2019-05-07T04:32:29.074Z,84.91
2019-05-07T04:33:29.102Z,85.10
2019-05-07T04:34:29.136Z,85.10
2019-05-07T04:35:29.167Z,85.00
2019-05-07T04:36:35.576Z,85.38
2019-05-07T04:38:33.401Z,85.10
2019-05-07T04:39:33.507Z,84.81
2019-05-07T04:41:33.294Z,85.10
2019-05-07T04:42:33.604Z,84.72
2019-05-07T04:44:35.277Z,84.43
2019-05-07T04:45:35.301Z,84.62
2019-05-07T04:47:38.614Z,84.14
2019-05-07T04:48:27.297Z,83.95
2019-05-07T04:50:40.651Z,83.76
2019-05-07T04:51:29.326Z,83.95
2019-05-07T04:53:23.696Z,83.95
2019-05-07T04:54:23.746Z,83.95
2019-05-07T04:56:24.043Z,84.24
2019-05-07T04:57:23.710Z,83.58
2019-05-07T04:59:25.542Z,83.86
2019-05-07T05:00:25.546Z,83.39
2019-05-07T05:02:27.558Z,83.76
2019-05-07T05:03:27.581Z,83.10
2019-05-07T05:05:32.735Z,83.10
2019-05-07T05:06:29.615Z,82.34
2019-05-07T05:08:32.609Z,82.43
2019-05-07T05:09:32.878Z,82.24
2019-05-07T05:11:33.791Z,82.53
2019-05-07T05:12:33.683Z,81.58
2019-05-07T05:14:35.682Z,82.05
2019-05-07T05:15:35.705Z,81.62
2019-05-07T05:17:27.658Z,81.52
2019-05-07T05:18:27.664Z,81.71
2019-05-07T05:20:29.675Z,81.33
2019-05-07T05:21:29.698Z,81.62
2019-05-07T05:23:32.254Z,80.66
2019-05-07T05:24:32.920Z,80.57
2019-05-07T05:26:33.790Z,80.38
2019-05-07T05:27:33.780Z,80.66
2019-05-07T05:29:35.794Z,79.91
2019-05-07T05:30:35.816Z,80.10
2019-05-07T05:32:37.872Z,79.52
2019-05-07T05:33:37.859Z,79.72
